Time;durP1;ratioP1;P1;durP2;ratioP2;P2;SDS_P1;SDS_P2;PMS_P1;PMS_P2;Temp;Humidity;BMP_temperature;BMP_pressure;BME280_temperature;BME280_humidity;BME280_pressure;Samples;Min_cycle;Max_cycle;Signal;HPM_P1;HPM_P2
2021/09/07 00:01:54;;;;;;;4.05;2.50;;;16.60;78.10;;;;;;5011516;28;20509;-74
2021/09/07 00:04:28;;;;;;;4.80;2.70;;;16.60;78.10;;;;;;5012776;28;20109;-73
2021/09/07 00:06:57;;;;;;;2.80;2.53;;;16.70;77.80;;;;;;5011631;28;20057;-74
2021/09/07 00:09:25;;;;;;;3.30;2.60;;;16.90;80.10;;;;;;5012816;28;20502;-74
2021/09/07 00:11:52;;;;;;;3.25;2.60;;;17.00;77.10;;;;;;5011492;28;20029;-73
2021/09/07 00:14:19;;;;;;;3.38;2.67;;;17.20;76.20;;;;;;5012843;28;20073;-74
2021/09/07 00:16:47;;;;;;;5.57;2.97;;;17.30;76.90;;;;;;5012807;28;20036;-74
2021/09/07 00:19:14;;;;;;;6.00;3.55;;;17.40;77.90;;;;;;5012756;28;20052;-74
2021/09/07 00:21:41;;;;;;;3.88;3.53;;;17.50;73.50;;;;;;5011555;28;20451;-75
2021/09/07 00:24:09;;;;;;;8.35;5.97;;;17.50;74.00;;;;;;5012719;28;20022;-75
2021/09/07 00:26:36;;;;;;;7.30;4.63;;;17.50;73.00;;;;;;5011400;28;20029;-76
2021/09/07 00:29:04;;;;;;;7.07;4.85;;;17.70;73.00;;;;;;5012779;28;20026;-74
2021/09/07 00:31:31;;;;;;;8.30;6.03;;;18.00;76.00;;;;;;5012949;28;20018;-74
2021/09/07 00:33:58;;;;;;;7.80;5.82;;;18.10;73.40;;;;;;5012733;28;20025;-74
2021/09/07 00:36:27;;;;;;;9.10;5.88;;;18.20;73.50;;;;;;5012653;28;20022;-73
2021/09/07 00:38:54;;;;;;;9.50;6.47;;;18.20;74.80;;;;;;5013009;28;20030;-73
2021/09/07 00:41:21;;;;;;;8.27;6.30;;;18.20;73.20;;;;;;5011499;28;20037;-74
2021/09/07 00:43:49;;;;;;;9.98;7.18;;;18.50;72.90;;;;;;5012583;28;20493;-74
2021/09/07 00:46:16;;;;;;;10.20;6.70;;;18.40;71.70;;;;;;5013684;28;20022;-74
2021/09/07 00:48:43;;;;;;;7.75;6.00;;;18.50;71.10;;;;;;5016281;28;20447;-74
2021/09/07 00:51:11;;;;;;;6.45;5.68;;;18.70;69.10;;;;;;5015020;28;20084;-74
2021/09/07 00:53:40;;;;;;;6.13;4.88;;;18.80;70.00;;;;;;5014688;28;20033;-74
2021/09/07 00:56:08;;;;;;;4.75;4.35;;;18.80;69.30;;;;;;5015905;28;20025;-73
2021/09/07 00:58:39;;;;;;;5.85;4.38;;;18.90;69.80;;;;;;5015054;28;20053;-73
2021/09/07 01:01:07;;;;;;;5.13;3.83;;;19.10;71.20;;;;;;5014629;28;20083;-73
2021/09/07 01:03:35;;;;;;;6.40;4.15;;;19.10;69.10;;;;;;5015831;28;20022;-73
2021/09/07 01:06:02;;;;;;;5.25;4.10;;;19.00;68.50;;;;;;5014364;28;20127;-73
2021/09/07 01:08:31;;;;;;;4.93;4.25;;;19.10;67.90;;;;;;5015703;28;20497;-73
2021/09/07 01:10:58;;;;;;;7.00;4.55;;;19.30;68.10;;;;;;5015760;28;20455;-73
2021/09/07 01:13:26;;;;;;;4.78;4.30;;;19.30;66.00;;;;;;5015667;28;20087;-73
2021/09/07 01:15:53;;;;;;;7.53;4.30;;;19.40;65.60;;;;;;5015600;28;20018;-73
2021/09/07 01:18:20;;;;;;;5.45;4.45;;;19.70;66.20;;;;;;5014338;28;20029;-73
2021/09/07 01:20:48;;;;;;;8.15;5.22;;;19.90;64.70;;;;;;5015505;28;20022;-74
2021/09/07 01:23:15;;;;;;;4.38;4.00;;;19.90;64.00;;;;;;5014242;28;20026;-74
2021/09/07 01:25:42;;;;;;;5.15;4.28;;;20.20;63.40;;;;;;5015504;28;20034;-75
2021/09/07 01:28:13;;;;;;;6.05;4.00;;;20.30;63.40;;;;;;5015326;28;20382;-74
2021/09/07 01:30:42;;;;;;;4.30;3.80;;;20.40;62.20;;;;;;5015409;28;20054;-75
2021/09/07 01:33:12;;;;;;;5.25;4.00;;;20.50;62.50;;;;;;5013963;28;20033;-74
2021/09/07 01:35:42;;;;;;;4.32;3.63;;;20.70;62.40;;;;;;5015302;28;20018;-74
2021/09/07 01:38:09;;;;;;;5.25;4.10;;;20.80;61.30;;;;;;5013978;28;20123;-74
2021/09/07 01:40:37;;;;;;;3.80;3.38;;;20.90;61.40;;;;;;5015288;28;20029;-74
2021/09/07 01:43:04;;;;;;;3.50;3.20;;;21.00;61.40;;;;;;5015125;28;20022;-74
2021/09/07 01:45:31;;;;;;;3.38;3.13;;;21.10;58.30;;;;;;5013829;28;20089;-74
2021/09/07 01:47:59;;;;;;;5.63;3.10;;;21.30;60.00;;;;;;5014955;28;20567;-73
2021/09/07 01:50:26;;;;;;;3.70;3.33;;;21.60;58.10;;;;;;5014998;28;20041;-73
2021/09/07 01:52:53;;;;;;;3.60;3.30;;;21.60;55.70;;;;;;5015028;28;20037;-73
2021/09/07 01:55:21;;;;;;;2.72;2.63;;;21.80;54.00;;;;;;5015007;28;20449;-73
2021/09/07 01:57:49;;;;;;;2.60;2.40;;;21.80;54.20;;;;;;5014171;28;20105;-75
2021/09/07 02:00:17;;;;;;;2.55;2.35;;;21.90;54.10;;;;;;5013551;28;20502;-74
2021/09/07 02:02:44;;;;;;;2.78;2.40;;;22.00;52.10;;;;;;5014795;28;20036;-73
2021/09/07 02:05:12;;;;;;;4.38;2.97;;;22.00;52.50;;;;;;5014499;28;20053;-73
2021/09/07 02:07:39;;;;;;;3.30;2.30;;;22.20;52.50;;;;;;5013355;28;20057;-72
2021/09/07 02:10:09;;;;;;;3.83;2.70;;;22.30;50.60;;;;;;5013433;28;20450;-73
2021/09/07 02:12:37;;;;;;;2.53;2.35;;;22.50;51.00;;;;;;5014530;28;20030;-72
2021/09/07 02:15:06;;;;;;;3.22;2.60;;;22.70;51.30;;;;;;5013268;28;20033;-73
2021/09/07 02:17:33;;;;;;;6.25;2.40;;;23.00;53.10;;;;;;5014628;28;20033;-73
2021/09/07 02:20:01;;;;;;;2.40;2.20;;;22.80;49.10;;;;;;5013474;28;20030;-74
2021/09/07 02:22:28;;;;;;;2.80;2.60;;;22.70;48.80;;;;;;5014434;28;20072;-73
2021/09/07 02:24:56;;;;;;;2.40;2.20;;;22.80;48.60;;;;;;5013064;28;20026;-72
2021/09/07 02:27:23;;;;;;;2.70;2.50;;;22.50;46.60;;;;;;5014229;28;20474;-73
2021/09/07 02:29:51;;;;;;;2.67;2.30;;;22.70;46.70;;;;;;5014201;28;20478;-73
2021/09/07 02:32:18;;;;;;;2.70;2.53;;;22.90;48.60;;;;;;5014253;28;20026;-73
2021/09/07 02:34:46;;;;;;;4.45;2.63;;;23.00;49.30;;;;;;5014180;28;20030;-73
2021/09/07 02:37:13;;;;;;;4.13;2.60;;;23.20;49.10;;;;;;5013891;28;20023;-73
2021/09/07 02:39:40;;;;;;;2.75;2.50;;;23.20;46.00;;;;;;5013973;28;20030;-73
2021/09/07 02:42:08;;;;;;;4.03;2.40;;;23.20;48.00;;;;;;5014009;28;20026;-74
2021/09/07 02:44:36;;;;;;;2.60;2.40;;;23.30;49.10;;;;;;5012592;28;20026;-73
2021/09/07 02:47:03;;;;;;;3.90;2.80;;;23.30;46.60;;;;;;5012549;28;20022;-73
2021/09/07 02:49:31;;;;;;;2.72;2.53;;;23.20;47.50;;;;;;5013812;28;20099;-73
2021/09/07 02:51:58;;;;;;;3.25;2.70;;;23.40;47.00;;;;;;5013733;28;20024;-74
2021/09/07 02:54:25;;;;;;;3.10;2.28;;;23.40;48.30;;;;;;5013733;28;20025;-74
2021/09/07 02:56:53;;;;;;;3.00;2.50;;;23.50;48.60;;;;;;5013769;28;20080;-74
2021/09/07 02:59:21;;;;;;;3.08;2.50;;;23.60;48.70;;;;;;5012284;28;20544;-74
2021/09/07 03:01:48;;;;;;;4.22;2.72;;;23.60;50.30;;;;;;5012285;28;20088;-74
2021/09/07 03:04:15;;;;;;;3.72;2.67;;;23.70;46.70;;;;;;5013587;28;20026;-74
2021/09/07 03:06:45;;;;;;;3.00;2.60;;;23.40;47.60;;;;;;5013296;28;20383;-74
2021/09/07 03:09:16;;;;;;;3.30;2.30;;;23.30;48.00;;;;;;5013385;28;20026;-74
2021/09/07 03:11:43;;;;;;;2.92;2.40;;;23.60;48.10;;;;;;5013476;28;20033;-74
2021/09/07 03:14:10;;;;;;;2.63;2.42;;;23.80;48.00;;;;;;5012402;28;20390;-75
2021/09/07 03:16:38;;;;;;;2.80;2.60;;;23.80;48.60;;;;;;5012061;28;20026;-74
2021/09/07 03:19:05;;;;;;;2.58;2.47;;;23.70;47.90;;;;;;5013374;28;20033;-73
2021/09/07 03:21:33;;;;;;;2.40;2.20;;;23.90;48.40;;;;;;5013302;28;20045;-73
2021/09/07 03:24:01;;;;;;;3.70;2.70;;;23.70;47.40;;;;;;5013220;28;20029;-73
2021/09/07 03:26:28;;;;;;;2.58;2.30;;;23.60;48.50;;;;;;5013273;28;20506;-74
2021/09/07 03:28:56;;;;;;;3.47;2.60;;;23.70;49.40;;;;;;5013167;28;20133;-74
2021/09/07 03:31:23;;;;;;;2.60;2.40;;;23.70;47.20;;;;;;5011791;28;20120;-75
2021/09/07 03:33:51;;;;;;;2.75;2.50;;;23.70;47.80;;;;;;5011852;28;20033;-75
2021/09/07 03:36:18;;;;;;;2.90;2.67;;;23.90;49.70;;;;;;5011851;28;20117;-74
2021/09/07 03:38:45;;;;;;;3.90;2.50;;;23.90;49.10;;;;;;5012085;28;20172;-74
2021/09/07 03:41:13;;;;;;;3.20;2.80;;;23.90;48.30;;;;;;5012987;28;20022;-74
2021/09/07 03:43:40;;;;;;;3.30;3.00;;;24.10;49.80;;;;;;5011586;28;20037;-74
2021/09/07 03:46:08;;;;;;;2.63;2.42;;;24.10;49.20;;;;;;5011749;28;20418;-74
2021/09/07 03:48:35;;;;;;;4.35;2.60;;;23.90;49.00;;;;;;5012962;28;20018;-74
2021/09/07 03:51:02;;;;;;;3.40;2.50;;;23.90;49.70;;;;;;5013186;28;20029;-74
2021/09/07 03:53:30;;;;;;;3.08;2.50;;;23.90;50.70;;;;;;5011761;28;20033;-74
2021/09/07 03:55:58;;;;;;;2.92;2.70;;;24.00;48.70;;;;;;5011699;28;20040;-74
2021/09/07 03:58:26;;;;;;;3.13;2.50;;;24.20;49.50;;;;;;5011589;28;20387;-74
2021/09/07 04:00:53;;;;;;;2.92;2.65;;;24.00;48.60;;;;;;5012900;28;20026;-74
2021/09/07 04:03:21;;;;;;;3.20;2.90;;;24.00;50.40;;;;;;5011676;28;20028;-74
2021/09/07 04:05:49;;;;;;;2.95;2.75;;;24.20;50.30;;;;;;5012613;28;20173;-74
2021/09/07 04:08:16;;;;;;;4.50;2.90;;;23.90;49.70;;;;;;5011585;28;20182;-74
2021/09/07 04:10:44;;;;;;;2.95;2.65;;;24.00;50.80;;;;;;5012948;28;20133;-74
2021/09/07 04:13:11;;;;;;;4.13;2.60;;;24.20;50.60;;;;;;5012966;28;20531;-73
2021/09/07 04:15:38;;;;;;;2.92;2.70;;;24.00;50.30;;;;;;5011657;28;20497;-74
2021/09/07 04:18:06;;;;;;;2.95;2.70;;;24.10;49.60;;;;;;5013046;28;20018;-74
2021/09/07 04:20:33;;;;;;;2.88;2.60;;;24.10;50.60;;;;;;5014134;28;20025;-74
2021/09/07 04:23:00;;;;;;;4.10;2.60;;;24.10;50.50;;;;;;5015664;28;20030;-73
2021/09/07 04:25:28;;;;;;;3.05;2.67;;;24.10;50.60;;;;;;5015558;28;20037;-74
2021/09/07 04:27:56;;;;;;;5.50;2.92;;;24.20;51.40;;;;;;5015704;28;20057;-73
2021/09/07 04:30:23;;;;;;;5.03;2.90;;;24.20;49.90;;;;;;5016770;28;20018;-74
2021/09/07 04:32:51;;;;;;;4.00;2.70;;;24.20;50.10;;;;;;5016611;28;20021;-74
2021/09/07 04:35:18;;;;;;;2.53;2.10;;;24.30;51.10;;;;;;5016553;28;20025;-74
2021/09/07 04:37:46;;;;;;;2.53;2.33;;;24.30;51.30;;;;;;5016513;28;20558;-73
2021/09/07 04:40:13;;;;;;;3.05;2.70;;;24.10;50.50;;;;;;5015342;28;20033;-74
2021/09/07 04:42:41;;;;;;;2.97;2.53;;;24.20;50.70;;;;;;5016353;28;20029;-74
2021/09/07 04:45:08;;;;;;;3.63;2.67;;;23.80;52.10;;;;;;5014975;28;20076;-74
2021/09/07 04:47:36;;;;;;;3.85;2.75;;;23.90;51.90;;;;;;5016337;28;20453;-74
2021/09/07 04:50:04;;;;;;;3.55;3.25;;;23.90;52.50;;;;;;5016270;28;20097;-74
2021/09/07 04:52:32;;;;;;;2.83;2.50;;;23.80;52.10;;;;;;5016154;28;20105;-74
2021/09/07 04:54:59;;;;;;;3.55;3.00;;;23.80;51.60;;;;;;5016281;28;20033;-75
2021/09/07 04:57:27;;;;;;;2.60;2.40;;;23.70;51.80;;;;;;5016120;28;20038;-73
2021/09/07 04:59:54;;;;;;;4.30;3.45;;;23.80;53.50;;;;;;5014760;28;20033;-74
2021/09/07 05:02:21;;;;;;;4.07;3.13;;;23.70;52.20;;;;;;5015992;28;20483;-73
2021/09/07 05:04:49;;;;;;;5.53;3.17;;;23.70;52.00;;;;;;5015731;28;20026;-73
2021/09/07 05:07:16;;;;;;;3.17;2.90;;;23.60;51.70;;;;;;5015984;28;20161;-73
2021/09/07 05:09:43;;;;;;;2.80;2.55;;;23.50;53.10;;;;;;5015867;28;20023;-74
2021/09/07 05:12:11;;;;;;;3.38;3.08;;;23.70;53.00;;;;;;5014497;28;20026;-72
2021/09/07 05:14:38;;;;;;;3.78;2.92;;;23.50;51.90;;;;;;5015921;28;20028;-77
2021/09/07 05:17:05;;;;;;;3.00;2.70;;;23.40;52.70;;;;;;5014864;28;20033;-73
2021/09/07 05:19:33;;;;;;;3.67;2.65;;;23.40;52.40;;;;;;5015450;28;20018;-74
2021/09/07 05:22:00;;;;;;;2.90;2.60;;;23.30;52.60;;;;;;5016074;28;20064;-77
2021/09/07 05:24:27;;;;;;;3.72;2.85;;;23.40;52.70;;;;;;5018251;28;20018;-77
2021/09/07 05:26:55;;;;;;;5.43;2.80;;;23.30;52.70;;;;;;5016870;28;20068;-77
2021/09/07 05:29:22;;;;;;;4.13;2.90;;;23.40;53.40;;;;;;5016680;28;20026;-77
2021/09/07 05:31:49;;;;;;;3.03;2.70;;;23.40;53.30;;;;;;5016429;28;20384;-78
2021/09/07 05:34:17;;;;;;;3.08;2.88;;;23.40;53.00;;;;;;5017917;28;20022;-76
2021/09/07 05:36:44;;;;;;;2.72;2.53;;;23.40;53.50;;;;;;5016728;28;20018;-77
2021/09/07 05:39:11;;;;;;;3.28;2.75;;;23.40;52.10;;;;;;5016567;28;20022;-77
2021/09/07 05:41:39;;;;;;;3.53;2.40;;;23.30;53.30;;;;;;5015150;28;20180;-77
2021/09/07 05:44:06;;;;;;;2.50;2.30;;;23.10;52.90;;;;;;5015753;28;20021;-77
2021/09/07 05:46:34;;;;;;;3.35;2.40;;;23.10;52.20;;;;;;5014565;28;20026;-76
2021/09/07 05:49:01;;;;;;;3.20;2.40;;;23.20;53.40;;;;;;5015617;28;20022;-76
2021/09/07 05:51:29;;;;;;;2.50;2.28;;;23.10;53.10;;;;;;5014637;28;20022;-79
2021/09/07 05:53:56;;;;;;;2.58;2.38;;;23.10;53.60;;;;;;5015772;28;20479;-77
2021/09/07 05:56:23;;;;;;;3.88;2.63;;;23.10;53.70;;;;;;5017176;28;20018;-78
2021/09/07 05:58:51;;;;;;;4.10;2.50;;;23.00;53.30;;;;;;5017601;28;20084;-78
2021/09/07 06:01:18;;;;;;;3.35;2.65;;;23.00;53.00;;;;;;5017656;28;20025;-78
2021/09/07 06:03:45;;;;;;;2.83;2.53;;;22.90;53.10;;;;;;5017179;28;20021;-77
2021/09/07 06:06:13;;;;;;;3.00;2.70;;;22.80;53.70;;;;;;5016539;28;20074;-78
2021/09/07 06:08:40;;;;;;;3.88;2.58;;;22.70;54.10;;;;;;5018192;28;20500;-78
2021/09/07 06:11:09;;;;;;;4.63;2.88;;;22.70;54.30;;;;;;5017007;28;20378;-78
2021/09/07 06:13:37;;;;;;;3.65;2.53;;;22.70;53.80;;;;;;5018918;28;20174;-77
2021/09/07 06:16:04;;;;;;;2.67;2.40;;;22.70;54.20;;;;;;5017573;28;20382;-78
2021/09/07 06:18:31;;;;;;;6.68;2.45;;;22.70;54.60;;;;;;5015520;28;20121;-76
2021/09/07 06:20:59;;;;;;;3.75;2.60;;;22.70;55.10;;;;;;5015666;28;20026;-77
2021/09/07 06:23:26;;;;;;;3.17;2.50;;;22.60;55.00;;;;;;5016134;28;20049;-76
2021/09/07 06:25:57;;;;;;;2.30;2.10;;;22.50;55.70;;;;;;5015424;28;20101;-77
2021/09/07 06:28:26;;;;;;;2.75;2.55;;;22.50;55.90;;;;;;5014220;28;20037;-77
2021/09/07 06:30:54;;;;;;;4.03;2.40;;;22.40;55.70;;;;;;5015478;28;20509;-77
2021/09/07 06:33:21;;;;;;;3.28;2.70;;;22.30;56.10;;;;;;5014338;28;20022;-78
2021/09/07 06:35:49;;;;;;;7.10;3.00;;;22.10;57.00;;;;;;5013814;28;20029;-77
2021/09/07 06:38:16;;;;;;;2.60;2.38;;;22.10;56.70;;;;;;5014570;28;20029;-76
2021/09/07 06:40:44;;;;;;;4.93;2.92;;;21.90;56.90;;;;;;5014727;28;20057;-78
2021/09/07 06:43:11;;;;;;;2.42;2.30;;;21.80;57.20;;;;;;5012944;28;20034;-76
2021/09/07 06:45:38;;;;;;;2.38;2.17;;;21.80;57.30;;;;;;5012799;28;20034;-76
2021/09/07 06:48:06;;;;;;;5.15;2.78;;;21.70;57.40;;;;;;5012846;28;20033;-76
2021/09/07 06:50:33;;;;;;;3.05;2.60;;;21.60;57.40;;;;;;5012732;28;20030;-76
2021/09/07 06:53:00;;;;;;;3.05;2.50;;;21.50;58.00;;;;;;5014014;28;20132;-76
2021/09/07 06:55:28;;;;;;;2.67;2.40;;;21.40;58.00;;;;;;5014107;28;20018;-77
2021/09/07 06:57:56;;;;;;;3.75;3.05;;;21.30;58.50;;;;;;5013607;28;20025;-76
2021/09/07 07:00:23;;;;;;;2.60;2.40;;;21.30;58.20;;;;;;5014544;28;20029;-78
2021/09/07 07:02:51;;;;;;;2.80;2.60;;;21.30;58.30;;;;;;5013778;28;20022;-76
2021/09/07 07:05:18;;;;;;;3.60;2.55;;;21.20;58.10;;;;;;5014461;28;20056;-77
2021/09/07 07:07:46;;;;;;;3.17;2.97;;;21.10;58.60;;;;;;5018718;28;20386;-80
2021/09/07 07:10:13;;;;;;;3.85;2.70;;;21.00;59.10;;;;;;5016608;28;20110;-78
2021/09/07 07:12:41;;;;;;;4.38;2.70;;;20.90;60.60;;;;;;5017155;28;20092;-78
2021/09/07 07:15:09;;;;;;;8.43;3.50;;;20.70;71.20;;;;;;5012554;28;20124;-78
2021/09/07 07:17:36;;;;;;;6.35;3.00;;;20.30;76.70;;;;;;5013946;28;20029;-77
2021/09/07 07:20:04;;;;;;;11.57;7.15;;;19.90;81.20;;;;;;5013102;28;20522;-73
2021/09/07 07:22:32;;;;;;;7.70;4.30;;;19.60;83.70;;;;;;5012055;28;20022;-75
2021/09/07 07:24:59;;;;;;;8.13;3.92;;;19.30;85.80;;;;;;5012213;28;20080;-75
2021/09/07 07:27:26;;;;;;;5.22;3.25;;;19.00;87.30;;;;;;5013306;28;20212;-74
2021/09/07 07:29:53;;;;;;;6.47;3.20;;;18.90;88.40;;;;;;5011870;28;20030;-73
2021/09/07 07:32:21;;;;;;;3.47;2.85;;;18.70;89.50;;;;;;5011896;28;20038;-76
2021/09/07 07:34:49;;;;;;;4.95;3.22;;;18.60;89.60;;;;;;5013230;28;20029;-73
2021/09/07 07:37:16;;;;;;;5.05;3.95;;;18.40;90.10;;;;;;5011788;28;20057;-73
2021/09/07 07:39:44;;;;;;;5.93;3.75;;;18.40;90.20;;;;;;5013080;28;20022;-74
2021/09/07 07:42:11;;;;;;;6.57;3.35;;;18.20;90.40;;;;;;5013135;28;20029;-73
2021/09/07 07:44:38;;;;;;;6.07;3.38;;;18.00;90.80;;;;;;5011598;28;20451;-74
2021/09/07 07:47:06;;;;;;;9.45;3.70;;;18.00;90.80;;;;;;5012891;28;20026;-73
2021/09/07 07:49:33;;;;;;;6.13;3.88;;;17.90;90.90;;;;;;5013086;28;20022;-73
2021/09/07 07:52:00;;;;;;;10.88;5.63;;;17.80;91.30;;;;;;5012946;28;20017;-73
2021/09/07 07:54:27;;;;;;;6.53;4.53;;;17.70;91.30;;;;;;5012647;28;20018;-74
2021/09/07 07:56:55;;;;;;;7.85;3.58;;;17.60;91.40;;;;;;5011398;28;20431;-73
2021/09/07 07:59:22;;;;;;;7.65;3.28;;;17.50;91.60;;;;;;5011610;28;20029;-74
2021/09/07 08:01:52;;;;;;;9.93;4.40;;;17.50;91.90;;;;;;5012805;28;20018;-73
2021/09/07 08:04:19;;;;;;;23.08;19.85;;;17.40;92.50;;;;;;5011554;28;20057;-74
2021/09/07 08:06:52;;;;;;;13.77;8.18;;;17.30;93.10;;;;;;5012873;28;20073;-73
2021/09/07 08:09:39;;;;;;;13.63;10.75;;;17.30;93.10;;;;;;5013182;28;20124;-73
2021/09/07 08:12:06;;;;;;;6.15;3.95;;;17.20;93.70;;;;;;5012917;28;20026;-74
2021/09/07 08:14:33;;;;;;;18.58;12.43;;;17.20;94.00;;;;;;5012962;28;20025;-74
2021/09/07 08:17:01;;;;;;;7.18;3.47;;;17.10;94.10;;;;;;5011644;28;20069;-74
2021/09/07 08:19:28;;;;;;;11.02;7.97;;;17.10;93.30;;;;;;5012769;28;20018;-74
2021/09/07 08:21:56;;;;;;;13.52;10.45;;;17.00;93.50;;;;;;5012894;28;20025;-76
2021/09/07 08:24:23;;;;;;;6.63;3.70;;;17.00;93.30;;;;;;5012807;28;20072;-73
2021/09/07 08:26:50;;;;;;;4.80;3.42;;;17.00;92.70;;;;;;5011431;28;20022;-74
2021/09/07 08:29:18;;;;;;;8.00;4.28;;;16.90;93.40;;;;;;5012607;28;20022;-75
2021/09/07 08:31:45;;;;;;;11.75;7.15;;;16.90;94.70;;;;;;5011517;28;20030;-75
2021/09/07 08:34:12;;;;;;;9.50;5.10;;;16.90;95.20;;;;;;5011419;28;20021;-75
2021/09/07 08:36:40;;;;;;;8.55;6.30;;;16.90;96.30;;;;;;5012646;28;20095;-75
2021/09/07 08:39:07;;;;;;;8.43;5.07;;;16.80;96.80;;;;;;5011173;28;20037;-75
2021/09/07 08:41:35;;;;;;;9.80;5.15;;;16.70;97.10;;;;;;5012595;28;20553;-75
2021/09/07 08:44:02;;;;;;;18.27;9.40;;;16.70;97.80;;;;;;5011270;28;20022;-75
2021/09/07 08:46:32;;;;;;;14.13;6.70;;;16.60;98.50;;;;;;5012504;28;20026;-74
2021/09/07 08:49:00;;;;;;;12.23;7.97;;;16.50;98.70;;;;;;5012611;28;20482;-75
2021/09/07 08:51:27;;;;;;;7.63;3.75;;;16.40;99.00;;;;;;5012520;28;20044;-75
2021/09/07 08:53:54;;;;;;;9.27;5.32;;;16.40;99.30;;;;;;5011202;28;20026;-74
2021/09/07 08:56:22;;;;;;;7.85;3.78;;;16.30;99.60;;;;;;5012409;28;20414;-74
2021/09/07 08:58:50;;;;;;;12.18;4.65;;;16.30;99.70;;;;;;5012753;28;20505;-73
2021/09/07 09:01:18;;;;;;;8.50;4.57;;;16.30;99.90;;;;;;5012876;28;20417;-74
2021/09/07 09:03:49;;;;;;;10.77;3.95;;;16.30;99.80;;;;;;5010934;28;20037;-72
2021/09/07 09:06:27;;;;;;;6.75;4.25;;;16.20;99.70;;;;;;5012988;28;20049;-72
2021/09/07 09:09:14;;;;;;;8.57;3.40;;;16.20;99.60;;;;;;5014390;28;20042;-73
2021/09/07 09:11:55;;;;;;;9.30;3.95;;;16.10;99.80;;;;;;5014418;28;20458;-74
2021/09/07 09:14:40;;;;;;;9.18;3.35;;;16.10;99.80;;;;;;5015761;28;20022;-74
2021/09/07 09:17:20;;;;;;;8.13;3.17;;;16.00;99.90;;;;;;5015561;28;20552;-74
2021/09/07 09:20:16;;;;;;;9.15;3.25;;;16.00;99.90;;;;;;5015575;28;20093;-74
2021/09/07 09:22:54;;;;;;;9.00;3.55;;;16.00;99.90;;;;;;5014301;28;20037;-74
2021/09/07 09:25:21;;;;;;;10.02;4.97;;;15.90;99.90;;;;;;5015445;28;20030;-74
2021/09/07 09:28:05;;;;;;;7.25;3.20;;;15.90;99.90;;;;;;5014536;28;20025;-74
2021/09/07 09:30:35;;;;;;;9.15;2.83;;;15.80;99.90;;;;;;5014278;28;20026;-74
2021/09/07 09:33:04;;;;;;;8.20;3.58;;;15.80;99.90;;;;;;5015525;28;20032;-75
2021/09/07 09:35:32;;;;;;;5.72;2.80;;;15.80;99.90;;;;;;5014177;28;20033;-77
2021/09/07 09:38:02;;;;;;;8.63;3.28;;;15.80;99.90;;;;;;5014181;28;20061;-74
2021/09/07 09:40:32;;;;;;;6.88;2.85;;;15.80;99.90;;;;;;5014492;28;20030;-74
2021/09/07 09:43:20;;;;;;;11.85;2.90;;;15.80;99.90;;;;;;5014311;28;20033;-75
2021/09/07 09:45:48;;;;;;;6.90;2.90;;;15.80;99.90;;;;;;5014965;28;20034;-75
2021/09/07 09:48:35;;;;;;;9.15;2.60;;;15.80;99.90;;;;;;5015034;28;20030;-73
2021/09/07 09:51:02;;;;;;;7.53;3.20;;;15.70;99.90;;;;;;5013828;28;20113;-73
2021/09/07 09:53:31;;;;;;;8.30;4.07;;;15.60;99.90;;;;;;5013690;28;20033;-74
2021/09/07 09:55:58;;;;;;;11.38;3.10;;;15.50;99.90;;;;;;5014959;28;20025;-73
2021/09/07 09:58:26;;;;;;;8.32;3.50;;;15.40;99.90;;;;;;5014972;28;20029;-73
2021/09/07 10:00:55;;;;;;;6.65;3.13;;;15.40;99.90;;;;;;5013525;28;20084;-72
2021/09/07 10:03:23;;;;;;;9.07;3.35;;;15.40;99.90;;;;;;5014738;28;20389;-73
2021/09/07 10:05:50;;;;;;;8.95;3.55;;;15.40;99.90;;;;;;5013084;28;20045;-74
2021/09/07 10:08:18;;;;;;;8.00;3.30;;;15.30;99.90;;;;;;5013543;28;20037;-73
2021/09/07 10:11:08;;;;;;;8.15;3.60;;;15.30;99.90;;;;;;5013616;28;20022;-73
2021/09/07 10:13:40;;;;;;;9.33;3.40;;;15.30;99.90;;;;;;5014613;28;20417;-72
2021/09/07 10:16:18;;;;;;;8.10;3.30;;;15.20;99.90;;;;;;5014632;28;20768;-74
2021/09/07 10:18:51;;;;;;;9.90;3.47;;;15.30;99.90;;;;;;5013658;28;20025;-73
2021/09/07 10:26:41;;;;;;;6.95;3.60;;;15.20;99.90;;;;;;5014400;28;20501;-74
2021/09/07 10:29:17;;;;;;;9.23;3.63;;;15.10;99.90;;;;;;5012902;28;20033;-72
2021/09/07 10:31:50;;;;;;;8.18;4.00;;;15.00;99.90;;;;;;5013007;28;20113;-73
2021/09/07 10:34:26;;;;;;;6.85;3.55;;;15.00;99.90;;;;;;5014161;28;20056;-73
2021/09/07 10:37:08;;;;;;;8.40;4.03;;;14.90;99.90;;;;;;5013013;28;20034;-73
2021/09/07 10:39:37;;;;;;;8.90;3.90;;;14.90;99.90;;;;;;5012766;28;20022;-71
2021/09/07 10:42:10;;;;;;;8.10;3.72;;;14.80;99.90;;;;;;5014078;28;20025;-73
2021/09/07 10:44:42;;;;;;;10.85;4.57;;;14.70;99.90;;;;;;5014087;28;20053;-73
2021/09/07 10:47:14;;;;;;;6.25;4.35;;;14.70;99.90;;;;;;5014179;28;20014;-74
2021/09/07 10:49:50;;;;;;;9.32;4.38;;;14.60;99.90;;;;;;5012619;28;20018;-73
2021/09/07 10:52:22;;;;;;;12.25;4.38;;;14.60;99.90;;;;;;5013961;28;20478;-73
2021/09/07 10:55:09;;;;;;;10.35;3.90;;;14.50;99.90;;;;;;5013846;28;20513;-72
2021/09/07 10:57:37;;;;;;;8.85;4.22;;;14.60;99.90;;;;;;5013899;28;20049;-73
2021/09/07 11:00:29;;;;;;;9.10;3.97;;;14.50;99.90;;;;;;5013681;28;20109;-73
2021/09/07 11:02:57;;;;;;;9.52;4.82;;;14.50;99.90;;;;;;5013656;28;20026;-73
2021/09/07 11:05:32;;;;;;;9.05;4.15;;;14.40;99.90;;;;;;5013506;28;20069;-72
2021/09/07 11:08:04;;;;;;;13.50;4.63;;;14.40;99.90;;;;;;5013613;28;20065;-72
2021/09/07 11:10:34;;;;;;;8.13;4.07;;;14.40;99.90;;;;;;5013486;28;20018;-71
2021/09/07 11:13:07;;;;;;;13.27;4.82;;;14.40;99.90;;;;;;5013848;28;20018;-72
2021/09/07 11:15:39;;;;;;;5.93;3.80;;;14.30;99.90;;;;;;5012229;28;20042;-72
2021/09/07 11:18:15;;;;;;;6.70;4.32;;;14.30;99.90;;;;;;5013459;28;20511;-72
2021/09/07 11:20:47;;;;;;;8.15;4.32;;;14.30;99.90;;;;;;5013469;28;20101;-71
2021/09/07 11:23:16;;;;;;;9.57;4.75;;;14.20;99.90;;;;;;5013340;28;20021;-71
2021/09/07 11:25:48;;;;;;;9.40;4.85;;;14.20;99.90;;;;;;5012013;28;20030;-70
2021/09/07 11:28:17;;;;;;;8.70;4.53;;;14.20;99.90;;;;;;5011888;28;20033;-73
2021/09/07 11:30:48;;;;;;;8.73;4.13;;;14.10;99.90;;;;;;5011869;28;20479;-72
2021/09/07 11:33:17;;;;;;;9.98;4.78;;;14.20;99.90;;;;;;5012036;28;20053;-72
2021/09/07 11:35:51;;;;;;;6.38;4.00;;;14.20;99.90;;;;;;5013195;28;20033;-75
2021/09/07 11:38:40;;;;;;;9.35;4.30;;;14.20;99.90;;;;;;5013106;28;20025;-72
2021/09/07 11:41:13;;;;;;;8.18;4.28;;;14.10;99.90;;;;;;5012736;28;20521;-72
2021/09/07 11:43:49;;;;;;;7.25;4.38;;;14.10;99.90;;;;;;5013091;28;20073;-72
2021/09/07 11:46:27;;;;;;;6.93;4.40;;;14.10;99.90;;;;;;5013224;28;20029;-71
2021/09/07 11:49:02;;;;;;;8.05;4.55;;;14.00;99.90;;;;;;5013235;28;20022;-72
2021/09/07 11:51:32;;;;;;;10.38;4.68;;;14.10;99.90;;;;;;5013051;28;20383;-72
2021/09/07 11:54:06;;;;;;;7.57;4.10;;;14.00;99.90;;;;;;5011615;28;20022;-72
2021/09/07 11:56:35;;;;;;;11.82;4.65;;;13.90;99.90;;;;;;5011527;28;20026;-72
2021/09/07 11:59:12;;;;;;;8.90;5.07;;;14.00;99.90;;;;;;5012886;28;20550;-72
2021/09/07 12:01:47;;;;;;;8.20;4.95;;;13.90;99.90;;;;;;5013016;28;20018;-72
2021/09/07 12:04:19;;;;;;;6.20;4.47;;;13.90;99.90;;;;;;5012806;28;20022;-72
2021/09/07 12:06:52;;;;;;;6.80;4.88;;;13.80;99.90;;;;;;5012655;28;20053;-72
2021/09/07 12:09:33;;;;;;;9.15;4.72;;;13.80;99.90;;;;;;5012771;28;20084;-73
2021/09/07 12:12:04;;;;;;;10.80;4.75;;;13.70;99.90;;;;;;5011534;28;20117;-72
2021/09/07 12:14:39;;;;;;;8.05;4.70;;;13.70;99.90;;;;;;5012854;28;20556;-73
2021/09/07 12:17:10;;;;;;;6.35;4.88;;;13.70;99.90;;;;;;5012738;28;20029;-73
2021/09/07 12:19:38;;;;;;;8.90;4.90;;;13.60;99.90;;;;;;5011444;28;20029;-73
2021/09/07 12:22:24;;;;;;;9.38;5.10;;;13.60;99.90;;;;;;5012641;28;20360;-72
2021/09/07 12:25:09;;;;;;;7.68;4.55;;;13.50;99.90;;;;;;5011349;28;20022;-72
2021/09/07 12:27:50;;;;;;;7.57;5.20;;;13.50;99.90;;;;;;5011659;28;20037;-73
2021/09/07 12:30:19;;;;;;;7.63;5.53;;;13.50;99.90;;;;;;5012737;28;20018;-72
2021/09/07 12:32:53;;;;;;;6.82;5.30;;;13.50;99.90;;;;;;5012844;28;20029;-72
2021/09/07 12:35:53;;;;;;;8.32;5.05;;;13.40;99.90;;;;;;5011414;28;20506;-72
2021/09/07 12:38:24;;;;;;;9.10;4.95;;;13.50;99.90;;;;;;4998291;28;20037;-73
2021/09/07 12:40:57;;;;;;;7.63;5.00;;;13.50;99.90;;;;;;5012871;28;20026;-73
2021/09/07 12:43:31;;;;;;;6.85;5.38;;;13.50;99.90;;;;;;5016383;28;20110;-74
2021/09/07 12:46:00;;;;;;;9.95;5.25;;;13.50;99.90;;;;;;5016285;28;20057;-73
2021/09/07 12:48:29;;;;;;;9.30;5.13;;;13.50;99.90;;;;;;5016136;28;20049;-73
2021/09/07 12:50:58;;;;;;;8.52;4.75;;;13.50;99.90;;;;;;5016079;28;20029;-73
2021/09/07 12:53:28;;;;;;;6.80;5.22;;;13.50;99.90;;;;;;5016005;28;20021;-72
2021/09/07 12:55:55;;;;;;;10.47;5.97;;;13.50;99.90;;;;;;5016067;28;20022;-72
2021/09/07 12:58:23;;;;;;;8.32;5.30;;;13.60;99.90;;;;;;5014754;28;20021;-72
2021/09/07 13:00:51;;;;;;;10.18;5.55;;;13.60;99.90;;;;;;5016027;28;20096;-73
2021/09/07 13:03:18;;;;;;;9.05;6.15;;;13.70;99.90;;;;;;5015905;28;20018;-73